sensor_id;sensor_type;location;lat;lon;timestamp;pressure;altitude;pressure_sealevel;temperature;humidity
65280;BME280;51878;55.748;48.742;2023-08-12T00:00:59;100019.88;;;19.14;95.45
65280;BME280;51878;55.748;48.742;2023-08-12T00:06:01;99995.59;;;18.92;95.52
65280;BME280;51878;55.748;48.742;2023-08-12T00:11:09;100030.09;;;19.07;95.82
65280;BME280;51878;55.748;48.742;2023-08-12T00:16:11;100040.03;;;19.08;96.26
65280;BME280;51878;55.748;48.742;2023-08-12T00:21:14;99991.50;;;18.76;96.26
65280;BME280;51878;55.748;48.742;2023-08-12T00:26:16;100005.03;;;18.78;97.28
65280;BME280;51878;55.748;48.742;2023-08-12T00:31:19;100015.25;;;18.89;96.54
65280;BME280;51878;55.748;48.742;2023-08-12T00:36:21;100021.63;;;18.90;96.28
65280;BME280;51878;55.748;48.742;2023-08-12T00:41:23;100056.25;;;19.16;95.56
65280;BME280;51878;55.748;48.742;2023-08-12T00:46:26;100060.44;;;19.18;94.65
65280;BME280;51878;55.748;48.742;2023-08-12T00:51:28;100026.66;;;18.93;94.82
65280;BME280;51878;55.748;48.742;2023-08-12T00:56:31;100058.72;;;19.17;92.90
65280;BME280;51878;55.748;48.742;2023-08-12T01:01:33;100045.06;;;19.11;92.83
65280;BME280;51878;55.748;48.742;2023-08-12T01:06:36;100063.25;;;19.12;93.35
65280;BME280;51878;55.748;48.742;2023-08-12T01:16:46;100029.75;;;18.78;96.11
65280;BME280;51878;55.748;48.742;2023-08-12T01:21:52;100031.28;;;18.67;97.51
65280;BME280;51878;55.748;48.742;2023-08-12T01:26:58;100046.25;;;18.71;97.40
65280;BME280;51878;55.748;48.742;2023-08-12T01:32:22;100076.84;;;18.82;97.85
65280;BME280;51878;55.748;48.742;2023-08-12T01:37:29;100063.66;;;18.65;97.83
65280;BME280;51878;55.748;48.742;2023-08-12T01:42:33;100036.13;;;18.47;98.58
65280;BME280;51878;55.748;48.742;2023-08-12T01:47:36;100041.25;;;18.43;98.42
65280;BME280;51878;55.748;48.742;2023-08-12T01:52:39;100021.47;;;18.34;98.65
65280;BME280;51878;55.748;48.742;2023-08-12T01:57:41;100068.34;;;18.58;98.91
65280;BME280;51878;55.748;48.742;2023-08-12T02:02:43;100025.03;;;18.35;98.95
65280;BME280;51878;55.748;48.742;2023-08-12T02:07:49;100012.00;;;18.30;98.56
65280;BME280;51878;55.748;48.742;2023-08-12T02:12:51;100056.53;;;18.57;98.45
65280;BME280;51878;55.748;48.742;2023-08-12T02:17:53;100070.16;;;18.71;98.44
65280;BME280;51878;55.748;48.742;2023-08-12T02:22:59;100070.78;;;18.73;98.51
65280;BME280;51878;55.748;48.742;2023-08-12T02:28:01;100062.31;;;18.74;98.41
65280;BME280;51878;55.748;48.742;2023-08-12T02:33:05;100043.31;;;18.73;98.62
65280;BME280;51878;55.748;48.742;2023-08-12T02:38:07;100066.56;;;18.95;98.40
65280;BME280;51878;55.748;48.742;2023-08-12T02:43:10;100087.94;;;19.18;98.11
65280;BME280;51878;55.748;48.742;2023-08-12T02:48:13;100037.56;;;18.99;98.04
65280;BME280;51878;55.748;48.742;2023-08-12T02:53:17;100072.66;;;19.41;97.63
65280;BME280;51878;55.748;48.742;2023-08-12T02:58:19;100058.06;;;19.40;97.01
65280;BME280;51878;55.748;48.742;2023-08-12T03:03:21;100076.56;;;19.70;96.59
65280;BME280;51878;55.748;48.742;2023-08-12T03:08:24;100045.28;;;19.65;95.79
65280;BME280;51878;55.748;48.742;2023-08-12T03:13:27;100072.94;;;19.88;95.07
65280;BME280;51878;55.748;48.742;2023-08-12T03:18:29;100075.97;;;19.98;95.28
65280;BME280;51878;55.748;48.742;2023-08-12T03:23:32;100091.00;;;20.14;95.04
65280;BME280;51878;55.748;48.742;2023-08-12T03:28:35;100076.16;;;20.15;94.59
65280;BME280;51878;55.748;48.742;2023-08-12T03:33:39;100076.44;;;20.26;94.49
65280;BME280;51878;55.748;48.742;2023-08-12T03:38:41;100010.22;;;19.90;94.38
65280;BME280;51878;55.748;48.742;2023-08-12T03:43:43;100086.81;;;20.54;93.32
65280;BME280;51878;55.748;48.742;2023-08-12T03:48:46;100085.28;;;20.70;92.25
65280;BME280;51878;55.748;48.742;2023-08-12T03:53:48;100086.88;;;20.89;90.39
65280;BME280;51878;55.748;48.742;2023-08-12T03:58:51;100088.69;;;21.07;89.22
65280;BME280;51878;55.748;48.742;2023-08-12T04:03:53;100070.56;;;21.11;86.46
65280;BME280;51878;55.748;48.742;2023-08-12T04:08:56;100083.66;;;21.28;83.69
65280;BME280;51878;55.748;48.742;2023-08-12T04:13:58;100055.81;;;21.29;81.48
65280;BME280;51878;55.748;48.742;2023-08-12T04:19:00;99978.63;;;20.94;80.16
65280;BME280;51878;55.748;48.742;2023-08-12T04:24:03;100062.59;;;21.62;77.65
65280;BME280;51878;55.748;48.742;2023-08-12T04:29:05;100025.28;;;21.59;74.15
65280;BME280;51878;55.748;48.742;2023-08-12T04:34:07;100054.50;;;21.84;71.31
65280;BME280;51878;55.748;48.742;2023-08-12T04:39:10;99987.25;;;21.61;70.25
65280;BME280;51878;55.748;48.742;2023-08-12T04:44:12;100057.91;;;22.20;65.18
65280;BME280;51878;55.748;48.742;2023-08-12T04:49:14;100040.47;;;22.31;62.15
65280;BME280;51878;55.748;48.742;2023-08-12T04:54:17;100069.06;;;22.70;59.58
65280;BME280;51878;55.748;48.742;2023-08-12T04:59:19;100080.69;;;22.89;56.64
65280;BME280;51878;55.748;48.742;2023-08-12T05:04:21;100076.34;;;23.10;56.12
65280;BME280;51878;55.748;48.742;2023-08-12T05:09:24;100052.59;;;23.15;53.03
65280;BME280;51878;55.748;48.742;2023-08-12T05:14:26;99996.81;;;23.01;51.17
65280;BME280;51878;55.748;48.742;2023-08-12T05:19:29;100028.41;;;23.44;48.65
65280;BME280;51878;55.748;48.742;2023-08-12T05:24:31;100036.16;;;23.69;47.42
65280;BME280;51878;55.748;48.742;2023-08-12T05:29:33;100051.63;;;23.87;44.33
65280;BME280;51878;55.748;48.742;2023-08-12T05:34:36;100076.34;;;23.93;44.02
65280;BME280;51878;55.748;48.742;2023-08-12T05:39:38;100051.63;;;23.87;43.43
65280;BME280;51878;55.748;48.742;2023-08-12T05:44:41;99965.16;;;23.58;43.43
65280;BME280;51878;55.748;48.742;2023-08-12T05:49:44;100091.50;;;24.35;42.72
65280;BME280;51878;55.748;48.742;2023-08-12T05:54:46;100093.69;;;24.60;42.27
65280;BME280;51878;55.748;48.742;2023-08-12T05:59:49;100084.84;;;24.63;41.80
65280;BME280;51878;55.748;48.742;2023-08-12T06:04:51;100063.16;;;24.55;41.21
65280;BME280;51878;55.748;48.742;2023-08-12T06:09:53;100075.16;;;24.66;40.59
65280;BME280;51878;55.748;48.742;2023-08-12T06:14:56;100070.75;;;24.70;39.97
65280;BME280;51878;55.748;48.742;2023-08-12T06:19:58;100067.72;;;24.71;40.04
65280;BME280;51878;55.748;48.742;2023-08-12T06:25:00;100083.69;;;24.91;39.74
65280;BME280;51878;55.748;48.742;2023-08-12T06:30:05;100135.09;;;25.36;39.44
65280;BME280;51878;55.748;48.742;2023-08-12T06:35:08;100124.16;;;25.62;38.83
65280;BME280;51878;55.748;48.742;2023-08-12T06:40:11;100086.66;;;25.65;38.16
65280;BME280;51878;55.748;48.742;2023-08-12T06:45:13;100107.44;;;26.25;37.36
65280;BME280;51878;55.748;48.742;2023-08-12T06:50:28;100126.47;;;26.79;36.19
65280;BME280;51878;55.748;48.742;2023-08-12T06:55:30;100081.94;;;26.90;34.87
65280;BME280;51878;55.748;48.742;2023-08-12T07:00:33;100113.13;;;27.28;34.55
65280;BME280;51878;55.748;48.742;2023-08-12T07:05:38;100073.81;;;27.14;33.60
65280;BME280;51878;55.748;48.742;2023-08-12T07:10:41;100103.28;;;27.56;34.04
65280;BME280;51878;55.748;48.742;2023-08-12T07:15:46;100079.28;;;27.60;32.54
65280;BME280;51878;55.748;48.742;2023-08-12T07:20:48;100105.19;;;27.76;31.91
65280;BME280;51878;55.748;48.742;2023-08-12T07:25:51;100074.56;;;27.66;31.83
65280;BME280;51878;55.748;48.742;2023-08-12T07:30:53;100093.31;;;28.10;31.06
65280;BME280;51878;55.748;48.742;2023-08-12T07:35:57;100051.50;;;28.10;31.23
65280;BME280;51878;55.748;48.742;2023-08-12T07:40:59;100074.16;;;28.42;30.31
65280;BME280;51878;55.748;48.742;2023-08-12T07:46:01;100048.34;;;28.61;30.85
65280;BME280;51878;55.748;48.742;2023-08-12T07:51:10;100045.03;;;28.88;29.48
65280;BME280;51878;55.748;48.742;2023-08-12T07:56:13;100067.78;;;29.35;29.15
65280;BME280;51878;55.748;48.742;2023-08-12T08:01:15;100029.06;;;29.47;29.48
65280;BME280;51878;55.748;48.742;2023-08-12T08:06:17;100057.22;;;29.99;29.03
65280;BME280;51878;55.748;48.742;2023-08-12T08:11:19;100033.41;;;30.01;27.69
65280;BME280;51878;55.748;48.742;2023-08-12T08:16:22;100041.13;;;30.10;27.77
65280;BME280;51878;55.748;48.742;2023-08-12T08:21:25;100058.25;;;30.22;27.39
65280;BME280;51878;55.748;48.742;2023-08-12T08:26:27;100039.19;;;30.62;27.02
65280;BME280;51878;55.748;48.742;2023-08-12T08:31:30;99994.47;;;30.57;27.00
65280;BME280;51878;55.748;48.742;2023-08-12T08:36:32;100034.97;;;31.39;26.44
65280;BME280;51878;55.748;48.742;2023-08-12T08:41:38;100007.25;;;31.09;25.25
65280;BME280;51878;55.748;48.742;2023-08-12T08:46:41;100021.47;;;31.13;26.24
65280;BME280;51878;55.748;48.742;2023-08-12T08:51:46;100047.03;;;31.25;25.56
65280;BME280;51878;55.748;48.742;2023-08-12T08:56:49;100020.03;;;31.29;26.32
65280;BME280;51878;55.748;48.742;2023-08-12T09:01:54;99982.38;;;31.36;25.22
65280;BME280;51878;55.748;48.742;2023-08-12T09:06:59;99990.06;;;31.94;25.61
65280;BME280;51878;55.748;48.742;2023-08-12T09:12:03;99978.88;;;32.17;25.84
65280;BME280;51878;55.748;48.742;2023-08-12T09:17:06;100029.63;;;32.65;24.39
65280;BME280;51878;55.748;48.742;2023-08-12T09:22:09;100028.59;;;33.06;24.06
65280;BME280;51878;55.748;48.742;2023-08-12T09:27:12;100030.19;;;33.30;23.95
65280;BME280;51878;55.748;48.742;2023-08-12T09:32:19;100014.50;;;33.46;22.85
65280;BME280;51878;55.748;48.742;2023-08-12T09:37:23;99958.34;;;33.15;23.05
65280;BME280;51878;55.748;48.742;2023-08-12T09:42:27;100033.69;;;34.02;23.33
65280;BME280;51878;55.748;48.742;2023-08-12T09:47:30;99966.13;;;34.02;22.69
65280;BME280;51878;55.748;48.742;2023-08-12T09:52:32;100014.50;;;35.12;21.93
65280;BME280;51878;55.748;48.742;2023-08-12T09:57:35;99979.53;;;35.43;21.46
65280;BME280;51878;55.748;48.742;2023-08-12T10:02:47;100005.53;;;36.08;20.42
65280;BME280;51878;55.748;48.742;2023-08-12T10:07:50;99984.22;;;36.31;20.01
65280;BME280;51878;55.748;48.742;2023-08-12T10:12:53;99990.03;;;36.35;19.84
65280;BME280;51878;55.748;48.742;2023-08-12T10:17:56;100004.31;;;36.51;20.40
65280;BME280;51878;55.748;48.742;2023-08-12T10:22:59;99933.03;;;36.20;20.30
65280;BME280;51878;55.748;48.742;2023-08-12T10:28:03;99997.38;;;36.48;19.92
65280;BME280;51878;55.748;48.742;2023-08-12T10:33:05;99978.66;;;37.01;19.26
65280;BME280;51878;55.748;48.742;2023-08-12T10:38:08;99971.88;;;37.64;17.79
65280;BME280;51878;55.748;48.742;2023-08-12T10:43:13;99946.16;;;38.10;16.61
65280;BME280;51878;55.748;48.742;2023-08-12T10:48:18;99947.69;;;38.63;17.21
65280;BME280;51878;55.748;48.742;2023-08-12T10:58:34;99984.78;;;39.50;16.57
65280;BME280;51878;55.748;48.742;2023-08-12T11:03:37;99908.94;;;38.99;15.83
65280;BME280;51878;55.748;48.742;2023-08-12T11:08:47;99929.72;;;39.03;15.85
65280;BME280;51878;55.748;48.742;2023-08-12T11:13:53;99949.44;;;39.47;15.84
65280;BME280;51878;55.748;48.742;2023-08-12T11:18:57;99943.75;;;39.83;15.41
65280;BME280;51878;55.748;48.742;2023-08-12T11:23:59;99951.91;;;40.23;14.96
65280;BME280;51878;55.748;48.742;2023-08-12T11:29:09;99945.19;;;40.32;14.61
65280;BME280;51878;55.748;48.742;2023-08-12T11:34:11;99889.59;;;39.21;15.12
65280;BME280;51878;55.748;48.742;2023-08-12T11:39:14;99921.72;;;39.41;15.53
65280;BME280;51878;55.748;48.742;2023-08-12T11:44:21;99945.66;;;39.79;15.06
65280;BME280;51878;55.748;48.742;2023-08-12T11:49:24;99932.66;;;41.02;14.27
65280;BME280;51878;55.748;48.742;2023-08-12T11:54:27;99936.59;;;41.70;13.72
65280;BME280;51878;55.748;48.742;2023-08-12T11:59:31;99937.16;;;41.26;13.82
65280;BME280;51878;55.748;48.742;2023-08-12T12:04:34;99932.09;;;41.69;13.34
65280;BME280;51878;55.748;48.742;2023-08-12T12:09:36;99905.69;;;41.72;13.80
65280;BME280;51878;55.748;48.742;2023-08-12T12:14:39;99947.06;;;41.36;14.00
65280;BME280;51878;55.748;48.742;2023-08-12T12:19:41;99940.19;;;42.27;13.38
65280;BME280;51878;55.748;48.742;2023-08-12T12:24:47;99914.97;;;42.33;12.77
65280;BME280;51878;55.748;48.742;2023-08-12T12:29:49;99932.78;;;42.57;12.18
65280;BME280;51878;55.748;48.742;2023-08-12T12:34:52;99934.50;;;42.68;12.62
65280;BME280;51878;55.748;48.742;2023-08-12T12:39:55;99917.63;;;42.90;12.51
65280;BME280;51878;55.748;48.742;2023-08-12T12:44:57;99905.69;;;43.29;11.50
65280;BME280;51878;55.748;48.742;2023-08-12T12:49:59;99894.66;;;42.76;12.90
65280;BME280;51878;55.748;48.742;2023-08-12T12:55:04;99888.06;;;43.20;12.07
65280;BME280;51878;55.748;48.742;2023-08-12T13:00:07;99890.16;;;43.23;11.69
65280;BME280;51878;55.748;48.742;2023-08-12T13:05:13;99907.84;;;42.91;12.45
65280;BME280;51878;55.748;48.742;2023-08-12T13:10:16;99923.34;;;43.42;12.29
65280;BME280;51878;55.748;48.742;2023-08-12T13:15:18;99857.03;;;43.11;12.46
65280;BME280;51878;55.748;48.742;2023-08-12T13:20:21;99879.69;;;43.48;12.19
65280;BME280;51878;55.748;48.742;2023-08-12T13:25:29;99909.28;;;43.88;12.05
65280;BME280;51878;55.748;48.742;2023-08-12T13:30:32;99908.00;;;43.79;11.75
65280;BME280;51878;55.748;48.742;2023-08-12T13:35:34;99869.63;;;43.76;11.85
65280;BME280;51878;55.748;48.742;2023-08-12T13:40:36;99880.66;;;43.70;11.71
65280;BME280;51878;55.748;48.742;2023-08-12T13:45:39;99874.19;;;43.18;12.20
65280;BME280;51878;55.748;48.742;2023-08-12T13:50:41;99893.81;;;42.75;12.36
65280;BME280;51878;55.748;48.742;2023-08-12T13:55:43;99911.88;;;42.45;12.29
65280;BME280;51878;55.748;48.742;2023-08-12T14:00:46;99876.88;;;42.11;12.68
65280;BME280;51878;55.748;48.742;2023-08-12T14:05:48;99900.16;;;41.86;12.93
65280;BME280;51878;55.748;48.742;2023-08-12T14:10:50;99899.09;;;42.36;12.38
65280;BME280;51878;55.748;48.742;2023-08-12T14:15:53;99889.72;;;41.64;13.46
65280;BME280;51878;55.748;48.742;2023-08-12T14:20:56;99824.47;;;41.25;13.34
65280;BME280;51878;55.748;48.742;2023-08-12T14:25:58;99870.81;;;41.82;13.64
65280;BME280;51878;55.748;48.742;2023-08-12T14:31:00;99869.19;;;41.24;13.54
65280;BME280;51878;55.748;48.742;2023-08-12T14:36:03;99864.53;;;41.39;13.55
65280;BME280;51878;55.748;48.742;2023-08-12T14:41:05;99808.19;;;40.26;14.36
65280;BME280;51878;55.748;48.742;2023-08-12T14:46:08;99858.09;;;40.00;14.80
65280;BME280;51878;55.748;48.742;2023-08-12T14:51:11;99826.63;;;39.90;14.59
65280;BME280;51878;55.748;48.742;2023-08-12T14:56:13;99757.56;;;39.08;14.87
65280;BME280;51878;55.748;48.742;2023-08-12T15:01:15;99862.03;;;39.21;15.50
65280;BME280;51878;55.748;48.742;2023-08-12T15:06:18;99868.31;;;38.79;16.07
65280;BME280;51878;55.748;48.742;2023-08-12T15:11:20;99866.66;;;37.90;17.12
65280;BME280;51878;55.748;48.742;2023-08-12T15:16:22;99819.38;;;36.97;17.81
65280;BME280;51878;55.748;48.742;2023-08-12T15:21:25;99856.41;;;36.22;18.39
65280;BME280;51878;55.748;48.742;2023-08-12T15:26:27;99869.53;;;34.83;19.50
65280;BME280;51878;55.748;48.742;2023-08-12T15:31:31;99859.69;;;33.60;20.81
65280;BME280;51878;55.748;48.742;2023-08-12T15:36:33;99826.75;;;32.28;21.85
65280;BME280;51878;55.748;48.742;2023-08-12T15:41:41;99825.88;;;31.01;23.64
65280;BME280;51878;55.748;48.742;2023-08-12T15:46:45;99856.34;;;30.34;24.19
65280;BME280;51878;55.748;48.742;2023-08-12T15:51:47;99839.94;;;29.42;24.82
65280;BME280;51878;55.748;48.742;2023-08-12T15:56:49;99841.59;;;28.57;25.80
65280;BME280;51878;55.748;48.742;2023-08-12T16:01:51;99823.50;;;27.62;27.02
65280;BME280;51878;55.748;48.742;2023-08-12T16:06:54;99831.97;;;26.92;28.07
65280;BME280;51878;55.748;48.742;2023-08-12T16:11:56;99873.03;;;26.50;29.00
65280;BME280;51878;55.748;48.742;2023-08-12T16:16:58;99848.38;;;25.97;29.54
65280;BME280;51878;55.748;48.742;2023-08-12T16:22:01;99861.94;;;25.68;30.10
65280;BME280;51878;55.748;48.742;2023-08-12T16:27:03;99875.50;;;25.44;30.73
65280;BME280;51878;55.748;48.742;2023-08-12T16:32:07;99827.59;;;24.91;30.92
65280;BME280;51878;55.748;48.742;2023-08-12T16:37:09;99842.78;;;24.73;31.42
65280;BME280;51878;55.748;48.742;2023-08-12T16:42:22;99869.06;;;24.60;31.95
65280;BME280;51878;55.748;48.742;2023-08-12T16:47:24;99871.00;;;24.54;31.55
65280;BME280;51878;55.748;48.742;2023-08-12T16:52:27;99809.94;;;24.02;32.19
65280;BME280;51878;55.748;48.742;2023-08-12T16:57:31;99806.25;;;23.91;32.22
65280;BME280;51878;55.748;48.742;2023-08-12T17:02:33;99879.38;;;24.27;32.44
65280;BME280;51878;55.748;48.742;2023-08-12T17:07:35;99881.75;;;24.13;32.56
65280;BME280;51878;55.748;48.742;2023-08-12T17:12:37;99804.34;;;23.64;32.12
65280;BME280;51878;55.748;48.742;2023-08-12T17:17:40;99892.00;;;24.08;32.45
65280;BME280;51878;55.748;48.742;2023-08-12T17:22:42;99859.69;;;23.86;32.50
65280;BME280;51878;55.748;48.742;2023-08-12T17:27:45;99849.63;;;23.75;32.50
65280;BME280;51878;55.748;48.742;2023-08-12T17:32:47;99886.63;;;23.96;33.23
65280;BME280;51878;55.748;48.742;2023-08-12T17:37:49;99848.13;;;23.67;32.88
65280;BME280;51878;55.748;48.742;2023-08-12T17:42:51;99782.38;;;23.20;32.97
65280;BME280;51878;55.748;48.742;2023-08-12T17:48:03;99845.00;;;23.59;33.56
65280;BME280;51878;55.748;48.742;2023-08-12T17:53:05;99898.97;;;23.83;33.72
65280;BME280;51878;55.748;48.742;2023-08-12T17:58:08;99877.78;;;23.72;33.89
65280;BME280;51878;55.748;48.742;2023-08-12T18:03:10;99846.00;;;23.47;33.72
65280;BME280;51878;55.748;48.742;2023-08-12T18:08:12;99884.63;;;23.59;33.57
65280;BME280;51878;55.748;48.742;2023-08-12T18:13:15;99887.84;;;23.51;34.38
65280;BME280;51878;55.748;48.742;2023-08-12T18:18:17;99858.16;;;23.19;34.03
65280;BME280;51878;55.748;48.742;2023-08-12T18:23:20;99878.47;;;23.30;34.61
65280;BME280;51878;55.748;48.742;2023-08-12T18:28:22;99884.13;;;23.13;34.74
65280;BME280;51878;55.748;48.742;2023-08-12T18:33:24;99868.75;;;23.00;35.39
65280;BME280;51878;55.748;48.742;2023-08-12T18:38:27;99884.97;;;22.97;35.35
65280;BME280;51878;55.748;48.742;2023-08-12T18:43:29;99893.59;;;22.78;36.02
65280;BME280;51878;55.748;48.742;2023-08-12T18:48:31;99887.88;;;22.63;35.94
65280;BME280;51878;55.748;48.742;2023-08-12T18:53:33;99870.09;;;22.37;36.72
65280;BME280;51878;55.748;48.742;2023-08-12T18:58:36;99886.59;;;22.32;36.85
65280;BME280;51878;55.748;48.742;2023-08-12T19:03:38;99853.94;;;21.95;37.38
65280;BME280;51878;55.748;48.742;2023-08-12T19:08:40;99872.94;;;21.91;37.90
65280;BME280;51878;55.748;48.742;2023-08-12T19:13:43;99884.50;;;21.88;38.31
65280;BME280;51878;55.748;48.742;2023-08-12T19:18:45;99883.63;;;21.71;38.63
65280;BME280;51878;55.748;48.742;2023-08-12T19:23:47;99873.06;;;21.51;39.35
65280;BME280;51878;55.748;48.742;2023-08-12T19:28:52;99882.34;;;21.44;39.68
65280;BME280;51878;55.748;48.742;2023-08-12T19:33:54;99854.25;;;21.19;40.27
65280;BME280;51878;55.748;48.742;2023-08-12T19:38:57;99842.66;;;21.05;40.05
65280;BME280;51878;55.748;48.742;2023-08-12T19:43:59;99829.31;;;20.85;40.55
65280;BME280;51878;55.748;48.742;2023-08-12T19:49:01;99843.47;;;20.89;40.69
65280;BME280;51878;55.748;48.742;2023-08-12T19:54:05;99889.25;;;21.18;41.02
65280;BME280;51878;55.748;48.742;2023-08-12T19:59:07;99886.16;;;21.15;41.05
65280;BME280;51878;55.748;48.742;2023-08-12T20:04:10;99882.91;;;21.18;41.05
65280;BME280;51878;55.748;48.742;2023-08-12T20:09:12;99859.34;;;20.98;41.21
65280;BME280;51878;55.748;48.742;2023-08-12T20:14:14;99890.56;;;21.28;41.41
65280;BME280;51878;55.748;48.742;2023-08-12T20:19:17;99879.63;;;21.21;41.56
65280;BME280;51878;55.748;48.742;2023-08-12T20:24:19;99814.00;;;20.77;42.17
65280;BME280;51878;55.748;48.742;2023-08-12T20:29:22;99886.63;;;21.23;42.72
65280;BME280;51878;55.748;48.742;2023-08-12T20:34:24;99845.72;;;20.92;42.98
65280;BME280;51878;55.748;48.742;2023-08-12T20:39:26;99890.34;;;21.17;43.70
65280;BME280;51878;55.748;48.742;2023-08-12T20:44:29;99890.00;;;21.14;44.23
65280;BME280;51878;55.748;48.742;2023-08-12T20:49:32;99880.53;;;21.10;44.58
65280;BME280;51878;55.748;48.742;2023-08-12T20:54:34;99850.63;;;20.90;45.11
65280;BME280;51878;55.748;48.742;2023-08-12T20:59:36;99848.97;;;20.89;45.31
65280;BME280;51878;55.748;48.742;2023-08-12T21:04:39;99873.53;;;20.90;45.83
65280;BME280;51878;55.748;48.742;2023-08-12T21:09:41;99856.81;;;20.68;46.17
65280;BME280;51878;55.748;48.742;2023-08-12T21:14:43;99858.03;;;20.60;46.93
65280;BME280;51878;55.748;48.742;2023-08-12T21:19:46;99872.03;;;20.71;47.13
65280;BME280;51878;55.748;48.742;2023-08-12T21:24:48;99864.22;;;20.68;47.44
65280;BME280;51878;55.748;48.742;2023-08-12T21:29:53;99821.47;;;20.41;47.69
65280;BME280;51878;55.748;48.742;2023-08-12T21:34:55;99849.63;;;20.55;47.82
65280;BME280;51878;55.748;48.742;2023-08-12T21:39:57;99845.22;;;20.42;48.17
65280;BME280;51878;55.748;48.742;2023-08-12T21:45:00;99808.94;;;20.10;48.59
65280;BME280;51878;55.748;48.742;2023-08-12T21:50:05;99850.97;;;20.29;49.08
65280;BME280;51878;55.748;48.742;2023-08-12T21:55:08;99863.78;;;20.23;49.40
65280;BME280;51878;55.748;48.742;2023-08-12T22:00:11;99785.47;;;19.60;49.74
65280;BME280;51878;55.748;48.742;2023-08-12T22:05:14;99878.63;;;20.22;49.88
65280;BME280;51878;55.748;48.742;2023-08-12T22:10:16;99886.28;;;20.20;50.13
65280;BME280;51878;55.748;48.742;2023-08-12T22:15:18;99882.56;;;20.15;50.59
65280;BME280;51878;55.748;48.742;2023-08-12T22:20:21;99794.31;;;19.63;50.87
65280;BME280;51878;55.748;48.742;2023-08-12T22:25:23;99846.28;;;19.94;51.23
65280;BME280;51878;55.748;48.742;2023-08-12T22:30:25;99853.84;;;19.99;51.75
65280;BME280;51878;55.748;48.742;2023-08-12T22:35:28;99881.41;;;20.11;52.65
65280;BME280;51878;55.748;48.742;2023-08-12T22:40:30;99849.78;;;19.90;53.27
65280;BME280;51878;55.748;48.742;2023-08-12T22:45:33;99875.13;;;20.03;53.95
65280;BME280;51878;55.748;48.742;2023-08-12T22:50:36;99859.13;;;19.89;54.67
65280;BME280;51878;55.748;48.742;2023-08-12T22:55:39;99840.53;;;19.72;54.90
65280;BME280;51878;55.748;48.742;2023-08-12T23:00:42;99862.06;;;19.75;55.33
65280;BME280;51878;55.748;48.742;2023-08-12T23:05:44;99791.50;;;19.27;55.78
65280;BME280;51878;55.748;48.742;2023-08-12T23:10:47;99816.38;;;19.32;56.65
65280;BME280;51878;55.748;48.742;2023-08-12T23:15:50;99842.94;;;19.38;57.34
65280;BME280;51878;55.748;48.742;2023-08-12T23:20:53;99849.75;;;19.36;57.86
65280;BME280;51878;55.748;48.742;2023-08-12T23:25:56;99872.72;;;19.41;58.77
65280;BME280;51878;55.748;48.742;2023-08-12T23:30:58;99877.38;;;19.41;59.04
65280;BME280;51878;55.748;48.742;2023-08-12T23:36:00;99865.50;;;19.29;59.73
65280;BME280;51878;55.748;48.742;2023-08-12T23:41:03;99893.09;;;19.52;61.58
65280;BME280;51878;55.748;48.742;2023-08-12T23:46:05;99848.41;;;19.27;63.64
65280;BME280;51878;55.748;48.742;2023-08-12T23:51:07;99811.41;;;19.11;64.85
65280;BME280;51878;55.748;48.742;2023-08-12T23:56:09;99848.19;;;19.40;66.68
